sensor_id;sensor_type;location;lat;lon;timestamp;P1;durP1;ratioP1;P2;durP2;ratioP2
60336;SDS011;46978;50.288;28.624;2023-07-29T00:00:41;4.99;;;2.35;;
60336;SDS011;46978;50.288;28.624;2023-07-29T00:01:43;5.19;;;2.21;;
60336;SDS011;46978;50.288;28.624;2023-07-29T00:02:45;4.71;;;1.99;;
60336;SDS011;46978;50.288;28.624;2023-07-29T00:03:46;3.21;;;1.99;;
60336;SDS011;46978;50.288;28.624;2023-07-29T00:04:48;3.45;;;2.22;;
60336;SDS011;46978;50.288;28.624;2023-07-29T00:05:50;6.77;;;2.14;;
60336;SDS011;46978;50.288;28.624;2023-07-29T00:06:52;3.26;;;1.73;;
60336;SDS011;46978;50.288;28.624;2023-07-29T00:07:53;6.10;;;2.11;;
60336;SDS011;46978;50.288;28.624;2023-07-29T00:08:55;3.63;;;2.09;;
60336;SDS011;46978;50.288;28.624;2023-07-29T00:09:57;4.09;;;2.14;;
60336;SDS011;46978;50.288;28.624;2023-07-29T00:10:58;3.96;;;1.88;;
60336;SDS011;46978;50.288;28.624;2023-07-29T00:12:00;4.61;;;2.04;;
60336;SDS011;46978;50.288;28.624;2023-07-29T00:13:01;4.39;;;2.09;;
60336;SDS011;46978;50.288;28.624;2023-07-29T00:14:03;4.39;;;2.16;;
60336;SDS011;46978;50.288;28.624;2023-07-29T00:15:05;7.05;;;2.56;;
60336;SDS011;46978;50.288;28.624;2023-07-29T00:16:09;4.11;;;2.26;;
60336;SDS011;46978;50.288;28.624;2023-07-29T00:17:10;3.46;;;1.85;;
60336;SDS011;46978;50.288;28.624;2023-07-29T00:18:12;3.90;;;2.14;;
60336;SDS011;46978;50.288;28.624;2023-07-29T00:19:14;4.22;;;2.12;;
60336;SDS011;46978;50.288;28.624;2023-07-29T00:20:16;3.95;;;2.09;;
60336;SDS011;46978;50.288;28.624;2023-07-29T00:21:17;4.44;;;2.38;;
60336;SDS011;46978;50.288;28.624;2023-07-29T00:22:19;4.68;;;2.14;;
60336;SDS011;46978;50.288;28.624;2023-07-29T00:23:21;4.00;;;2.17;;
60336;SDS011;46978;50.288;28.624;2023-07-29T00:24:22;4.62;;;2.07;;
60336;SDS011;46978;50.288;28.624;2023-07-29T00:25:24;4.23;;;2.10;;
60336;SDS011;46978;50.288;28.624;2023-07-29T00:26:26;6.80;;;2.24;;
60336;SDS011;46978;50.288;28.624;2023-07-29T00:27:28;4.75;;;2.11;;
60336;SDS011;46978;50.288;28.624;2023-07-29T00:28:30;6.11;;;2.64;;
60336;SDS011;46978;50.288;28.624;2023-07-29T00:29:31;4.96;;;2.28;;
60336;SDS011;46978;50.288;28.624;2023-07-29T00:30:33;5.07;;;2.01;;
60336;SDS011;46978;50.288;28.624;2023-07-29T00:31:35;3.44;;;1.90;;
60336;SDS011;46978;50.288;28.624;2023-07-29T00:32:36;5.41;;;2.37;;
60336;SDS011;46978;50.288;28.624;2023-07-29T00:33:38;3.54;;;2.03;;
60336;SDS011;46978;50.288;28.624;2023-07-29T00:34:40;4.22;;;2.11;;
60336;SDS011;46978;50.288;28.624;2023-07-29T00:35:41;5.64;;;2.56;;
60336;SDS011;46978;50.288;28.624;2023-07-29T00:36:43;5.89;;;2.41;;
60336;SDS011;46978;50.288;28.624;2023-07-29T00:37:45;3.70;;;2.26;;
60336;SDS011;46978;50.288;28.624;2023-07-29T00:38:47;3.72;;;1.99;;
60336;SDS011;46978;50.288;28.624;2023-07-29T00:39:48;4.46;;;2.09;;
60336;SDS011;46978;50.288;28.624;2023-07-29T00:40:50;4.19;;;2.14;;
60336;SDS011;46978;50.288;28.624;2023-07-29T00:41:52;4.14;;;2.53;;
60336;SDS011;46978;50.288;28.624;2023-07-29T00:42:54;3.51;;;2.21;;
60336;SDS011;46978;50.288;28.624;2023-07-29T00:43:56;4.79;;;2.07;;
60336;SDS011;46978;50.288;28.624;2023-07-29T00:44:57;4.45;;;2.25;;
60336;SDS011;46978;50.288;28.624;2023-07-29T00:45:59;4.56;;;2.45;;
60336;SDS011;46978;50.288;28.624;2023-07-29T00:47:02;4.15;;;2.07;;
60336;SDS011;46978;50.288;28.624;2023-07-29T00:48:05;4.69;;;2.14;;
60336;SDS011;46978;50.288;28.624;2023-07-29T00:49:07;3.90;;;2.30;;
60336;SDS011;46978;50.288;28.624;2023-07-29T00:50:09;4.47;;;2.22;;
60336;SDS011;46978;50.288;28.624;2023-07-29T00:51:13;4.42;;;2.01;;
60336;SDS011;46978;50.288;28.624;2023-07-29T00:52:15;3.47;;;2.10;;
60336;SDS011;46978;50.288;28.624;2023-07-29T00:53:17;5.15;;;2.03;;
60336;SDS011;46978;50.288;28.624;2023-07-29T00:54:19;3.57;;;2.13;;
60336;SDS011;46978;50.288;28.624;2023-07-29T00:56:43;3.97;;;2.04;;
60336;SDS011;46978;50.288;28.624;2023-07-29T00:57:44;5.27;;;2.29;;
60336;SDS011;46978;50.288;28.624;2023-07-29T00:58:46;4.37;;;2.17;;
60336;SDS011;46978;50.288;28.624;2023-07-29T00:59:48;5.14;;;2.02;;
60336;SDS011;46978;50.288;28.624;2023-07-29T01:00:50;4.94;;;2.27;;
60336;SDS011;46978;50.288;28.624;2023-07-29T01:01:53;4.07;;;2.37;;
60336;SDS011;46978;50.288;28.624;2023-07-29T01:02:55;3.81;;;2.30;;
60336;SDS011;46978;50.288;28.624;2023-07-29T01:03:56;5.15;;;2.28;;
60336;SDS011;46978;50.288;28.624;2023-07-29T01:04:58;5.07;;;2.13;;
60336;SDS011;46978;50.288;28.624;2023-07-29T01:08:31;4.08;;;2.35;;
60336;SDS011;46978;50.288;28.624;2023-07-29T01:09:44;4.47;;;2.37;;
60336;SDS011;46978;50.288;28.624;2023-07-29T01:12:27;4.07;;;2.20;;
60336;SDS011;46978;50.288;28.624;2023-07-29T01:13:37;5.47;;;2.25;;
60336;SDS011;46978;50.288;28.624;2023-07-29T01:14:51;3.53;;;2.10;;
60336;SDS011;46978;50.288;28.624;2023-07-29T01:15:55;4.46;;;2.27;;
60336;SDS011;46978;50.288;28.624;2023-07-29T01:17:02;4.07;;;2.22;;
60336;SDS011;46978;50.288;28.624;2023-07-29T01:18:18;3.42;;;2.17;;
60336;SDS011;46978;50.288;28.624;2023-07-29T01:19:16;4.39;;;2.47;;
60336;SDS011;46978;50.288;28.624;2023-07-29T01:20:24;4.29;;;2.19;;
60336;SDS011;46978;50.288;28.624;2023-07-29T01:21:27;4.18;;;2.26;;
60336;SDS011;46978;50.288;28.624;2023-07-29T01:22:30;4.99;;;2.41;;
60336;SDS011;46978;50.288;28.624;2023-07-29T01:23:34;5.21;;;2.36;;
60336;SDS011;46978;50.288;28.624;2023-07-29T01:24:36;5.33;;;2.17;;
60336;SDS011;46978;50.288;28.624;2023-07-29T01:25:38;3.96;;;2.12;;
60336;SDS011;46978;50.288;28.624;2023-07-29T01:26:40;4.43;;;2.00;;
60336;SDS011;46978;50.288;28.624;2023-07-29T01:27:42;4.16;;;2.32;;
60336;SDS011;46978;50.288;28.624;2023-07-29T01:28:46;3.77;;;2.29;;
60336;SDS011;46978;50.288;28.624;2023-07-29T01:29:47;3.91;;;2.15;;
60336;SDS011;46978;50.288;28.624;2023-07-29T01:30:49;4.29;;;2.39;;
60336;SDS011;46978;50.288;28.624;2023-07-29T01:31:54;5.41;;;2.29;;
60336;SDS011;46978;50.288;28.624;2023-07-29T01:33:02;4.73;;;2.33;;
60336;SDS011;46978;50.288;28.624;2023-07-29T01:34:09;5.32;;;2.60;;
60336;SDS011;46978;50.288;28.624;2023-07-29T01:36:40;4.86;;;2.45;;
60336;SDS011;46978;50.288;28.624;2023-07-29T01:37:44;4.85;;;2.62;;
60336;SDS011;46978;50.288;28.624;2023-07-29T01:38:49;3.99;;;2.32;;
60336;SDS011;46978;50.288;28.624;2023-07-29T01:39:54;4.73;;;2.08;;
60336;SDS011;46978;50.288;28.624;2023-07-29T01:40:59;4.82;;;2.29;;
60336;SDS011;46978;50.288;28.624;2023-07-29T01:42:03;3.95;;;1.95;;
60336;SDS011;46978;50.288;28.624;2023-07-29T01:43:04;4.31;;;2.49;;
60336;SDS011;46978;50.288;28.624;2023-07-29T01:44:06;4.91;;;2.44;;
60336;SDS011;46978;50.288;28.624;2023-07-29T01:45:09;4.51;;;2.27;;
60336;SDS011;46978;50.288;28.624;2023-07-29T01:46:11;3.78;;;2.15;;
60336;SDS011;46978;50.288;28.624;2023-07-29T01:47:12;3.38;;;2.11;;
60336;SDS011;46978;50.288;28.624;2023-07-29T01:48:14;4.64;;;2.23;;
60336;SDS011;46978;50.288;28.624;2023-07-29T01:49:16;4.01;;;2.37;;
60336;SDS011;46978;50.288;28.624;2023-07-29T01:50:18;6.41;;;2.32;;
60336;SDS011;46978;50.288;28.624;2023-07-29T01:51:20;5.23;;;2.09;;
60336;SDS011;46978;50.288;28.624;2023-07-29T01:52:21;4.21;;;2.19;;
60336;SDS011;46978;50.288;28.624;2023-07-29T01:53:23;4.50;;;2.42;;
60336;SDS011;46978;50.288;28.624;2023-07-29T01:54:25;6.58;;;2.86;;
60336;SDS011;46978;50.288;28.624;2023-07-29T01:55:27;5.25;;;2.49;;
60336;SDS011;46978;50.288;28.624;2023-07-29T01:56:30;4.43;;;2.30;;
60336;SDS011;46978;50.288;28.624;2023-07-29T01:57:32;4.39;;;2.50;;
60336;SDS011;46978;50.288;28.624;2023-07-29T01:58:34;4.77;;;2.26;;
60336;SDS011;46978;50.288;28.624;2023-07-29T01:59:35;4.94;;;2.17;;
60336;SDS011;46978;50.288;28.624;2023-07-29T02:00:37;5.02;;;2.40;;
60336;SDS011;46978;50.288;28.624;2023-07-29T02:01:39;4.96;;;2.64;;
60336;SDS011;46978;50.288;28.624;2023-07-29T02:02:40;5.49;;;2.45;;
60336;SDS011;46978;50.288;28.624;2023-07-29T02:03:42;6.09;;;2.71;;
60336;SDS011;46978;50.288;28.624;2023-07-29T02:04:44;5.46;;;2.21;;
60336;SDS011;46978;50.288;28.624;2023-07-29T02:05:45;3.97;;;2.23;;
60336;SDS011;46978;50.288;28.624;2023-07-29T02:06:47;5.21;;;2.52;;
60336;SDS011;46978;50.288;28.624;2023-07-29T02:07:49;5.03;;;2.21;;
60336;SDS011;46978;50.288;28.624;2023-07-29T02:08:51;5.00;;;2.25;;
60336;SDS011;46978;50.288;28.624;2023-07-29T02:09:52;7.09;;;2.62;;
60336;SDS011;46978;50.288;28.624;2023-07-29T02:10:54;4.12;;;2.35;;
60336;SDS011;46978;50.288;28.624;2023-07-29T02:11:56;4.92;;;2.51;;
60336;SDS011;46978;50.288;28.624;2023-07-29T02:12:57;5.68;;;2.42;;
60336;SDS011;46978;50.288;28.624;2023-07-29T02:13:59;5.39;;;2.25;;
60336;SDS011;46978;50.288;28.624;2023-07-29T02:15:01;4.23;;;2.52;;
60336;SDS011;46978;50.288;28.624;2023-07-29T02:16:03;5.75;;;2.28;;
60336;SDS011;46978;50.288;28.624;2023-07-29T02:17:05;4.56;;;2.30;;
60336;SDS011;46978;50.288;28.624;2023-07-29T02:18:07;5.16;;;2.09;;
60336;SDS011;46978;50.288;28.624;2023-07-29T02:19:08;4.58;;;2.55;;
60336;SDS011;46978;50.288;28.624;2023-07-29T02:20:11;5.98;;;2.33;;
60336;SDS011;46978;50.288;28.624;2023-07-29T02:21:12;5.19;;;2.52;;
60336;SDS011;46978;50.288;28.624;2023-07-29T02:22:15;3.38;;;2.24;;
60336;SDS011;46978;50.288;28.624;2023-07-29T02:23:18;5.23;;;2.31;;
60336;SDS011;46978;50.288;28.624;2023-07-29T02:24:19;3.87;;;2.19;;
60336;SDS011;46978;50.288;28.624;2023-07-29T02:25:21;5.42;;;2.67;;
60336;SDS011;46978;50.288;28.624;2023-07-29T02:26:23;4.30;;;2.25;;
60336;SDS011;46978;50.288;28.624;2023-07-29T02:27:25;4.76;;;2.49;;
60336;SDS011;46978;50.288;28.624;2023-07-29T02:28:26;4.21;;;2.40;;
60336;SDS011;46978;50.288;28.624;2023-07-29T02:29:28;4.58;;;2.58;;
60336;SDS011;46978;50.288;28.624;2023-07-29T02:30:30;3.89;;;2.23;;
60336;SDS011;46978;50.288;28.624;2023-07-29T02:31:32;5.34;;;2.31;;
60336;SDS011;46978;50.288;28.624;2023-07-29T02:32:33;5.57;;;2.32;;
60336;SDS011;46978;50.288;28.624;2023-07-29T02:33:35;4.54;;;2.26;;
60336;SDS011;46978;50.288;28.624;2023-07-29T02:34:36;4.63;;;2.43;;
60336;SDS011;46978;50.288;28.624;2023-07-29T02:35:38;5.04;;;3.02;;
60336;SDS011;46978;50.288;28.624;2023-07-29T02:36:40;4.55;;;2.46;;
60336;SDS011;46978;50.288;28.624;2023-07-29T02:37:42;4.22;;;2.39;;
60336;SDS011;46978;50.288;28.624;2023-07-29T02:38:43;4.93;;;2.56;;
60336;SDS011;46978;50.288;28.624;2023-07-29T02:39:45;5.59;;;2.67;;
60336;SDS011;46978;50.288;28.624;2023-07-29T02:40:47;6.81;;;2.63;;
60336;SDS011;46978;50.288;28.624;2023-07-29T02:43:11;5.44;;;2.80;;
60336;SDS011;46978;50.288;28.624;2023-07-29T02:44:12;5.44;;;2.46;;
60336;SDS011;46978;50.288;28.624;2023-07-29T02:45:14;4.64;;;2.46;;
60336;SDS011;46978;50.288;28.624;2023-07-29T02:46:16;7.26;;;2.47;;
60336;SDS011;46978;50.288;28.624;2023-07-29T02:47:18;5.27;;;2.61;;
60336;SDS011;46978;50.288;28.624;2023-07-29T02:48:19;4.94;;;2.72;;
60336;SDS011;46978;50.288;28.624;2023-07-29T02:49:21;4.54;;;2.39;;
60336;SDS011;46978;50.288;28.624;2023-07-29T02:50:23;5.31;;;2.50;;
60336;SDS011;46978;50.288;28.624;2023-07-29T02:51:25;4.67;;;2.31;;
60336;SDS011;46978;50.288;28.624;2023-07-29T02:52:27;5.36;;;2.84;;
60336;SDS011;46978;50.288;28.624;2023-07-29T02:53:28;4.09;;;2.27;;
60336;SDS011;46978;50.288;28.624;2023-07-29T02:54:30;5.93;;;2.59;;
60336;SDS011;46978;50.288;28.624;2023-07-29T02:55:32;4.76;;;2.70;;
60336;SDS011;46978;50.288;28.624;2023-07-29T02:56:34;4.64;;;2.55;;
60336;SDS011;46978;50.288;28.624;2023-07-29T02:57:35;4.49;;;2.58;;
60336;SDS011;46978;50.288;28.624;2023-07-29T02:58:37;6.22;;;2.51;;
60336;SDS011;46978;50.288;28.624;2023-07-29T02:59:39;5.37;;;2.61;;
60336;SDS011;46978;50.288;28.624;2023-07-29T03:00:41;4.52;;;2.32;;
60336;SDS011;46978;50.288;28.624;2023-07-29T03:01:43;5.67;;;2.63;;
60336;SDS011;46978;50.288;28.624;2023-07-29T03:02:44;4.39;;;2.72;;
60336;SDS011;46978;50.288;28.624;2023-07-29T03:03:46;3.78;;;2.28;;
60336;SDS011;46978;50.288;28.624;2023-07-29T03:04:48;4.79;;;2.61;;
60336;SDS011;46978;50.288;28.624;2023-07-29T03:05:49;9.31;;;2.96;;
60336;SDS011;46978;50.288;28.624;2023-07-29T03:06:53;4.11;;;2.42;;
60336;SDS011;46978;50.288;28.624;2023-07-29T03:07:55;7.46;;;2.55;;
60336;SDS011;46978;50.288;28.624;2023-07-29T03:08:57;4.77;;;2.50;;
60336;SDS011;46978;50.288;28.624;2023-07-29T03:09:58;7.18;;;2.54;;
60336;SDS011;46978;50.288;28.624;2023-07-29T03:11:10;4.45;;;2.25;;
60336;SDS011;46978;50.288;28.624;2023-07-29T03:12:15;4.95;;;2.58;;
60336;SDS011;46978;50.288;28.624;2023-07-29T03:13:17;7.12;;;2.37;;
60336;SDS011;46978;50.288;28.624;2023-07-29T03:14:18;5.14;;;2.51;;
60336;SDS011;46978;50.288;28.624;2023-07-29T03:15:22;5.60;;;2.46;;
60336;SDS011;46978;50.288;28.624;2023-07-29T03:16:27;6.04;;;2.40;;
60336;SDS011;46978;50.288;28.624;2023-07-29T03:17:29;5.53;;;2.58;;
60336;SDS011;46978;50.288;28.624;2023-07-29T03:18:30;5.59;;;2.64;;
60336;SDS011;46978;50.288;28.624;2023-07-29T03:19:32;3.83;;;2.20;;
60336;SDS011;46978;50.288;28.624;2023-07-29T03:20:34;4.20;;;2.56;;
60336;SDS011;46978;50.288;28.624;2023-07-29T03:21:36;4.29;;;2.49;;
60336;SDS011;46978;50.288;28.624;2023-07-29T03:22:38;5.22;;;2.41;;
60336;SDS011;46978;50.288;28.624;2023-07-29T03:23:39;6.40;;;3.89;;
60336;SDS011;46978;50.288;28.624;2023-07-29T03:24:41;8.65;;;5.18;;
60336;SDS011;46978;50.288;28.624;2023-07-29T03:25:43;5.04;;;3.15;;
60336;SDS011;46978;50.288;28.624;2023-07-29T03:26:45;5.74;;;3.11;;
60336;SDS011;46978;50.288;28.624;2023-07-29T03:27:46;4.94;;;2.95;;
60336;SDS011;46978;50.288;28.624;2023-07-29T03:28:48;4.86;;;2.50;;
60336;SDS011;46978;50.288;28.624;2023-07-29T03:29:49;4.70;;;2.64;;
60336;SDS011;46978;50.288;28.624;2023-07-29T03:30:51;4.56;;;2.50;;
60336;SDS011;46978;50.288;28.624;2023-07-29T03:31:53;5.18;;;2.47;;
60336;SDS011;46978;50.288;28.624;2023-07-29T03:32:55;4.56;;;2.46;;
60336;SDS011;46978;50.288;28.624;2023-07-29T03:33:56;5.49;;;2.42;;
60336;SDS011;46978;50.288;28.624;2023-07-29T03:34:58;3.98;;;2.35;;
60336;SDS011;46978;50.288;28.624;2023-07-29T03:36:00;4.92;;;2.71;;
60336;SDS011;46978;50.288;28.624;2023-07-29T03:37:01;5.23;;;2.57;;
60336;SDS011;46978;50.288;28.624;2023-07-29T03:38:03;5.34;;;2.82;;
60336;SDS011;46978;50.288;28.624;2023-07-29T03:39:05;5.65;;;2.91;;
60336;SDS011;46978;50.288;28.624;2023-07-29T03:40:08;7.57;;;4.51;;
60336;SDS011;46978;50.288;28.624;2023-07-29T03:41:10;5.67;;;3.19;;
60336;SDS011;46978;50.288;28.624;2023-07-29T03:42:12;5.73;;;3.68;;
60336;SDS011;46978;50.288;28.624;2023-07-29T03:43:14;6.05;;;3.78;;
60336;SDS011;46978;50.288;28.624;2023-07-29T03:44:16;5.07;;;3.05;;
60336;SDS011;46978;50.288;28.624;2023-07-29T03:45:17;5.51;;;3.25;;
60336;SDS011;46978;50.288;28.624;2023-07-29T03:46:19;10.96;;;5.84;;
60336;SDS011;46978;50.288;28.624;2023-07-29T03:47:21;6.77;;;3.83;;
60336;SDS011;46978;50.288;28.624;2023-07-29T03:48:23;7.12;;;3.35;;
60336;SDS011;46978;50.288;28.624;2023-07-29T03:49:24;12.06;;;5.65;;
60336;SDS011;46978;50.288;28.624;2023-07-29T03:50:26;13.99;;;7.83;;
60336;SDS011;46978;50.288;28.624;2023-07-29T03:51:29;20.68;;;11.11;;
60336;SDS011;46978;50.288;28.624;2023-07-29T03:52:31;12.64;;;5.83;;
60336;SDS011;46978;50.288;28.624;2023-07-29T03:53:33;10.09;;;4.53;;
60336;SDS011;46978;50.288;28.624;2023-07-29T03:54:34;7.66;;;3.64;;
60336;SDS011;46978;50.288;28.624;2023-07-29T03:55:36;7.19;;;3.31;;
60336;SDS011;46978;50.288;28.624;2023-07-29T03:56:38;5.05;;;3.22;;
60336;SDS011;46978;50.288;28.624;2023-07-29T03:57:39;5.86;;;3.21;;
60336;SDS011;46978;50.288;28.624;2023-07-29T03:58:41;5.44;;;2.87;;
60336;SDS011;46978;50.288;28.624;2023-07-29T03:59:43;5.23;;;2.51;;
60336;SDS011;46978;50.288;28.624;2023-07-29T04:00:45;5.47;;;2.82;;
60336;SDS011;46978;50.288;28.624;2023-07-29T04:01:47;5.04;;;2.74;;
60336;SDS011;46978;50.288;28.624;2023-07-29T04:02:48;6.28;;;3.26;;
60336;SDS011;46978;50.288;28.624;2023-07-29T04:03:50;5.35;;;2.65;;
60336;SDS011;46978;50.288;28.624;2023-07-29T04:04:52;5.52;;;2.77;;
60336;SDS011;46978;50.288;28.624;2023-07-29T04:05:53;8.19;;;2.65;;
60336;SDS011;46978;50.288;28.624;2023-07-29T04:06:55;5.45;;;2.71;;
60336;SDS011;46978;50.288;28.624;2023-07-29T04:07:57;4.27;;;2.59;;
60336;SDS011;46978;50.288;28.624;2023-07-29T04:08:59;9.69;;;3.15;;
60336;SDS011;46978;50.288;28.624;2023-07-29T04:10:01;5.69;;;2.69;;
60336;SDS011;46978;50.288;28.624;2023-07-29T04:11:04;5.50;;;2.72;;
60336;SDS011;46978;50.288;28.624;2023-07-29T04:12:06;6.28;;;2.84;;
60336;SDS011;46978;50.288;28.624;2023-07-29T04:13:08;5.93;;;3.16;;
60336;SDS011;46978;50.288;28.624;2023-07-29T04:14:10;5.33;;;2.94;;
60336;SDS011;46978;50.288;28.624;2023-07-29T04:15:12;5.67;;;2.71;;
60336;SDS011;46978;50.288;28.624;2023-07-29T04:16:14;6.39;;;3.02;;
60336;SDS011;46978;50.288;28.624;2023-07-29T04:17:16;5.07;;;2.81;;
60336;SDS011;46978;50.288;28.624;2023-07-29T04:18:18;5.11;;;2.57;;
60336;SDS011;46978;50.288;28.624;2023-07-29T04:19:19;7.44;;;2.78;;
60336;SDS011;46978;50.288;28.624;2023-07-29T04:20:21;5.94;;;2.89;;
60336;SDS011;46978;50.288;28.624;2023-07-29T04:21:23;5.92;;;2.39;;
60336;SDS011;46978;50.288;28.624;2023-07-29T04:22:25;4.96;;;2.71;;
60336;SDS011;46978;50.288;28.624;2023-07-29T04:23:26;4.96;;;2.80;;
60336;SDS011;46978;50.288;28.624;2023-07-29T04:24:28;4.91;;;2.31;;
60336;SDS011;46978;50.288;28.624;2023-07-29T04:25:30;5.19;;;2.50;;
60336;SDS011;46978;50.288;28.624;2023-07-29T04:26:31;5.09;;;2.86;;
60336;SDS011;46978;50.288;28.624;2023-07-29T04:27:33;5.74;;;2.63;;
60336;SDS011;46978;50.288;28.624;2023-07-29T04:28:35;4.87;;;2.44;;
60336;SDS011;46978;50.288;28.624;2023-07-29T04:29:36;4.79;;;2.81;;
60336;SDS011;46978;50.288;28.624;2023-07-29T04:30:38;5.85;;;2.57;;
60336;SDS011;46978;50.288;28.624;2023-07-29T04:31:40;4.11;;;2.46;;
60336;SDS011;46978;50.288;28.624;2023-07-29T04:32:42;5.10;;;2.30;;
60336;SDS011;46978;50.288;28.624;2023-07-29T04:33:44;6.41;;;3.34;;
60336;SDS011;46978;50.288;28.624;2023-07-29T04:34:45;6.50;;;2.84;;
60336;SDS011;46978;50.288;28.624;2023-07-29T04:35:47;5.67;;;2.91;;
60336;SDS011;46978;50.288;28.624;2023-07-29T04:36:49;4.83;;;2.81;;
60336;SDS011;46978;50.288;28.624;2023-07-29T04:37:51;4.55;;;2.39;;
60336;SDS011;46978;50.288;28.624;2023-07-29T04:38:52;3.64;;;2.08;;
60336;SDS011;46978;50.288;28.624;2023-07-29T04:39:54;4.31;;;2.21;;
60336;SDS011;46978;50.288;28.624;2023-07-29T04:40:56;6.24;;;2.76;;
60336;SDS011;46978;50.288;28.624;2023-07-29T04:41:58;4.41;;;2.28;;
60336;SDS011;46978;50.288;28.624;2023-07-29T04:43:02;5.53;;;2.40;;
60336;SDS011;46978;50.288;28.624;2023-07-29T04:44:04;5.26;;;2.51;;
60336;SDS011;46978;50.288;28.624;2023-07-29T04:45:06;4.86;;;2.73;;
60336;SDS011;46978;50.288;28.624;2023-07-29T04:46:08;5.38;;;2.78;;
60336;SDS011;46978;50.288;28.624;2023-07-29T04:47:10;6.63;;;2.37;;
60336;SDS011;46978;50.288;28.624;2023-07-29T04:48:12;5.25;;;2.74;;
60336;SDS011;46978;50.288;28.624;2023-07-29T04:49:13;4.45;;;2.03;;
60336;SDS011;46978;50.288;28.624;2023-07-29T04:50:15;8.31;;;2.62;;
60336;SDS011;46978;50.288;28.624;2023-07-29T04:51:17;6.08;;;2.24;;
60336;SDS011;46978;50.288;28.624;2023-07-29T04:52:19;5.09;;;2.26;;
60336;SDS011;46978;50.288;28.624;2023-07-29T04:53:20;4.75;;;2.53;;
60336;SDS011;46978;50.288;28.624;2023-07-29T04:54:22;5.29;;;2.87;;
60336;SDS011;46978;50.288;28.624;2023-07-29T04:55:24;4.77;;;2.48;;
60336;SDS011;46978;50.288;28.624;2023-07-29T04:56:26;4.79;;;2.24;;
60336;SDS011;46978;50.288;28.624;2023-07-29T04:57:27;4.04;;;2.14;;
60336;SDS011;46978;50.288;28.624;2023-07-29T04:58:29;5.88;;;2.41;;
60336;SDS011;46978;50.288;28.624;2023-07-29T04:59:31;6.37;;;2.68;;
60336;SDS011;46978;50.288;28.624;2023-07-29T05:00:34;5.21;;;2.40;;
60336;SDS011;46978;50.288;28.624;2023-07-29T05:01:36;4.76;;;2.23;;
60336;SDS011;46978;50.288;28.624;2023-07-29T05:02:37;6.14;;;2.75;;
60336;SDS011;46978;50.288;28.624;2023-07-29T05:03:39;5.01;;;2.14;;
60336;SDS011;46978;50.288;28.624;2023-07-29T05:04:40;4.81;;;2.40;;
60336;SDS011;46978;50.288;28.624;2023-07-29T05:05:42;5.39;;;2.22;;
60336;SDS011;46978;50.288;28.624;2023-07-29T05:06:44;4.14;;;2.20;;
60336;SDS011;46978;50.288;28.624;2023-07-29T05:07:45;4.54;;;2.46;;
60336;SDS011;46978;50.288;28.624;2023-07-29T05:08:47;5.06;;;2.24;;
60336;SDS011;46978;50.288;28.624;2023-07-29T05:09:49;5.58;;;2.44;;
60336;SDS011;46978;50.288;28.624;2023-07-29T05:10:51;4.15;;;2.27;;
60336;SDS011;46978;50.288;28.624;2023-07-29T05:11:53;4.79;;;2.47;;
60336;SDS011;46978;50.288;28.624;2023-07-29T05:12:55;6.71;;;2.34;;
60336;SDS011;46978;50.288;28.624;2023-07-29T05:13:57;4.63;;;2.51;;
60336;SDS011;46978;50.288;28.624;2023-07-29T05:14:58;4.56;;;2.51;;
60336;SDS011;46978;50.288;28.624;2023-07-29T05:16:00;5.04;;;2.62;;
60336;SDS011;46978;50.288;28.624;2023-07-29T05:17:01;4.51;;;2.39;;
60336;SDS011;46978;50.288;28.624;2023-07-29T05:18:03;6.19;;;2.51;;
60336;SDS011;46978;50.288;28.624;2023-07-29T05:19:05;5.34;;;2.41;;
60336;SDS011;46978;50.288;28.624;2023-07-29T05:20:07;4.07;;;2.23;;
60336;SDS011;46978;50.288;28.624;2023-07-29T05:21:10;5.89;;;2.68;;
60336;SDS011;46978;50.288;28.624;2023-07-29T05:22:11;4.86;;;2.79;;
60336;SDS011;46978;50.288;28.624;2023-07-29T05:23:13;4.66;;;2.56;;
60336;SDS011;46978;50.288;28.624;2023-07-29T05:24:15;6.22;;;2.59;;
60336;SDS011;46978;50.288;28.624;2023-07-29T05:25:16;4.48;;;2.59;;
60336;SDS011;46978;50.288;28.624;2023-07-29T05:26:18;6.21;;;2.73;;
60336;SDS011;46978;50.288;28.624;2023-07-29T05:27:20;4.91;;;2.20;;
60336;SDS011;46978;50.288;28.624;2023-07-29T05:28:22;5.14;;;2.38;;
60336;SDS011;46978;50.288;28.624;2023-07-29T05:29:23;5.54;;;2.40;;
60336;SDS011;46978;50.288;28.624;2023-07-29T05:30:25;5.21;;;2.51;;
60336;SDS011;46978;50.288;28.624;2023-07-29T05:31:27;4.74;;;2.75;;
60336;SDS011;46978;50.288;28.624;2023-07-29T05:32:29;4.84;;;2.46;;
60336;SDS011;46978;50.288;28.624;2023-07-29T05:33:30;3.94;;;2.22;;
60336;SDS011;46978;50.288;28.624;2023-07-29T05:34:32;5.86;;;2.42;;
60336;SDS011;46978;50.288;28.624;2023-07-29T05:35:34;4.44;;;2.24;;
60336;SDS011;46978;50.288;28.624;2023-07-29T05:36:35;4.34;;;2.40;;
60336;SDS011;46978;50.288;28.624;2023-07-29T05:37:40;5.13;;;2.68;;
60336;SDS011;46978;50.288;28.624;2023-07-29T05:38:42;5.39;;;2.69;;
60336;SDS011;46978;50.288;28.624;2023-07-29T05:39:44;4.42;;;2.14;;
60336;SDS011;46978;50.288;28.624;2023-07-29T05:40:47;3.87;;;2.31;;
60336;SDS011;46978;50.288;28.624;2023-07-29T05:41:49;5.37;;;2.47;;
60336;SDS011;46978;50.288;28.624;2023-07-29T05:42:51;5.77;;;2.64;;
60336;SDS011;46978;50.288;28.624;2023-07-29T05:43:53;6.79;;;2.67;;
60336;SDS011;46978;50.288;28.624;2023-07-29T05:44:54;4.62;;;2.21;;
60336;SDS011;46978;50.288;28.624;2023-07-29T05:45:56;3.51;;;2.17;;
60336;SDS011;46978;50.288;28.624;2023-07-29T05:46:58;4.59;;;2.85;;
60336;SDS011;46978;50.288;28.624;2023-07-29T05:48:00;5.16;;;2.59;;
60336;SDS011;46978;50.288;28.624;2023-07-29T05:49:02;5.89;;;2.36;;
60336;SDS011;46978;50.288;28.624;2023-07-29T05:50:04;5.75;;;2.77;;
60336;SDS011;46978;50.288;28.624;2023-07-29T05:51:06;7.12;;;3.76;;
60336;SDS011;46978;50.288;28.624;2023-07-29T05:52:08;7.45;;;3.29;;
60336;SDS011;46978;50.288;28.624;2023-07-29T05:53:10;4.43;;;2.84;;
60336;SDS011;46978;50.288;28.624;2023-07-29T05:54:11;5.33;;;2.83;;
60336;SDS011;46978;50.288;28.624;2023-07-29T05:55:13;6.02;;;2.63;;
60336;SDS011;46978;50.288;28.624;2023-07-29T05:56:16;4.86;;;2.43;;
60336;SDS011;46978;50.288;28.624;2023-07-29T05:57:18;4.96;;;2.74;;
60336;SDS011;46978;50.288;28.624;2023-07-29T05:58:19;4.82;;;2.40;;
60336;SDS011;46978;50.288;28.624;2023-07-29T05:59:21;5.27;;;2.25;;
60336;SDS011;46978;50.288;28.624;2023-07-29T06:00:23;6.19;;;2.34;;
60336;SDS011;46978;50.288;28.624;2023-07-29T06:01:25;5.44;;;2.64;;
60336;SDS011;46978;50.288;28.624;2023-07-29T06:02:27;5.81;;;2.53;;
60336;SDS011;46978;50.288;28.624;2023-07-29T06:03:29;6.24;;;2.96;;
60336;SDS011;46978;50.288;28.624;2023-07-29T06:04:30;7.11;;;2.71;;
60336;SDS011;46978;50.288;28.624;2023-07-29T06:05:32;6.26;;;2.74;;
60336;SDS011;46978;50.288;28.624;2023-07-29T06:06:34;5.72;;;2.63;;
60336;SDS011;46978;50.288;28.624;2023-07-29T06:07:36;4.49;;;2.46;;
60336;SDS011;46978;50.288;28.624;2023-07-29T06:08:38;5.54;;;2.29;;
60336;SDS011;46978;50.288;28.624;2023-07-29T06:09:39;11.82;;;2.64;;
60336;SDS011;46978;50.288;28.624;2023-07-29T06:10:41;4.24;;;2.46;;
60336;SDS011;46978;50.288;28.624;2023-07-29T06:11:43;5.46;;;2.57;;
60336;SDS011;46978;50.288;28.624;2023-07-29T06:12:45;4.62;;;2.53;;
60336;SDS011;46978;50.288;28.624;2023-07-29T06:13:47;5.69;;;2.45;;
60336;SDS011;46978;50.288;28.624;2023-07-29T06:14:49;4.76;;;2.57;;
60336;SDS011;46978;50.288;28.624;2023-07-29T06:15:51;4.72;;;2.45;;
60336;SDS011;46978;50.288;28.624;2023-07-29T06:16:52;5.76;;;2.44;;